Nearby METAR Reports

 

KSJC - San Jose, California, USA
Distance from station: NE 14km
Updated: 01/10/2022 02:23
Partly cloudy
Partly cloudy
 Wind from SSE
Wind: SSE 9 km/h
Temperature: 16°C
Dew Point: 13°C
Humidity: 83%
Barometer: 1010.2 hPa
Clouds: Partly cloudy
Visibility: 16 km
Cloud details: Partly cloudy 274 m
2022/10/01 09:23 KSJC 010923Z AUTO 16005KT 10SM SCT009 16/13 A2983 RMK AO2 T01560128 $
KNUQ - Moffett Nas/Mtn, California, USA
Distance from station: N 14km
Updated: 01/10/2022 02:15
Overcast
Overcast
 Wind from N
Wind: N 6 km/h
Temperature: 15°C
Dew Point: 14°C
Humidity: 94%
Barometer: 1010.2 hPa
Clouds: Overcast
Visibility: 16 km
Cloud details: Overcast 213 m
2022/10/01 09:15 KNUQ 010915Z AUTO 36003KT 10SM OVC007 15/14 A2983 RMK AO2
 
KPAO - Palo Alto, California, USA
Distance from station: NNW 23km
Updated: 30/09/2022 20:47
NOT Current
Clear
Clear
 Wind from NW
Wind: NW 11 km/h
Temperature: 17°C
Dew Point: 14°C
Humidity: 83%
Barometer: 1009.1 hPa
Clouds: Clear
Visibility: 16 km
2022/10/01 03:47 KPAO 010347Z 32006KT 10SM SKC 17/14 A2980 RMK LAST
KRHV - San Jose/Reid, California, USA
Distance from station: ENE 19km
Updated: 30/09/2022 21:55
NOT Current
Clear
Clear
 Wind from SSW
Wind: SSW 6 km/h
Temperature: 19°C
Dew Point: 12°C
Humidity: 64%
Barometer: 1009.5 hPa
Clouds: Clear
Visibility: 16 km
2022/10/01 04:55 KRHV 010455Z 20003KT 10SM SKC 19/12 A2981 RMK LAST
 
KOAK - Oakland, California, USA
Distance from station: NNW 50km
Updated: 01/10/2022 01:53
Mostly cloudy
Mostly cloudy
 Wind from NW
Wind: NW 11 km/h
Temperature: 14°C
Dew Point: 13°C
Humidity: 94%
Barometer: 1010.2 hPa
Clouds: Mostly cloudy
Visibility: 16 km
Cloud details: Few Clouds 91 m
Mostly cloudy 213 m
2022/10/01 08:53 KOAK 010853Z 32006KT 10SM FEW003 BKN007 14/13 A2983 RMK AO2 SLP100 T01390128 53002
KSQL - San Carlos Airpo, California, USA
Distance from station: NW 34km
Updated: 01/10/2022 02:15
Clear
Clear
 Wind from calm
Wind: Calm
Temperature: 14°C
Dew Point: 12°C
Humidity: 88%
Barometer: 1010.5 hPa
Clouds: Clear
Visibility: 16 km
2022/10/01 09:15 KSQL 010915Z AUTO 00000KT 10SM CLR 14/12 A2984 RMK AO2
 
KSFO - San Francisco, California, USA
Distance from station: NW 49km
Updated: 01/10/2022 01:56
Few Clouds
Few Clouds
 Wind from WNW
Wind: WNW 15 km/h
Temperature: 13°C
Dew Point: 12°C
Humidity: 94%
Barometer: 1009.8 hPa
Clouds: Few Clouds
Visibility: 16 km
Cloud details: Few Clouds 91 m
2022/10/01 08:56 KSFO 010856Z 30008KT 10SM FEW003 13/12 A2982 RMK AO2 SLP098 T01330122 53003
KE16 - San Martin, California, USA
Distance from station: ESE 43km
Updated: 01/10/2022 02:15
Mist, Overcast
Mist, Overcast
 Wind from SSE
Wind: SSE 11 km/h
Temperature: 13°C
Dew Point: 13°C
Humidity: 100%
Barometer: 1011.5 hPa
Summary: Mist
Clouds: Overcast
Visibility: 8 km
Cloud details: Overcast 91 m
2022/10/01 09:15 KE16 010915Z AUTO 16006KT 5SM BR OVC003 13/13 A2987 RMK AO2 PWINO PNO
 
KWVI - Watsonville, California, USA
Distance from station: SSE 44km
Updated: 01/10/2022 01:53
Mist, Overcast
Mist, Overcast
 Wind from S
Wind: S 6 km/h
Temperature: 13°C
Dew Point: 13°C
Humidity: 100%
Barometer: 1011.2 hPa
Summary: Mist
Clouds: Overcast
Visibility: 10 km
Cloud details: Overcast 91 m
2022/10/01 08:53 KWVI 010853Z AUTO 18003KT 6SM BR OVC003 13/13 A2986 RMK AO2 SLP110 T01280128 53002
KHAF - Half Moon Bay, California, USA
Distance from station: WNW 50km
Updated: 01/10/2022 02:15
Mist, Overcast
Mist, Overcast
 Wind from SSE
Wind: SSE 11 km/h
Temperature: 13°C
Dew Point: 13°C
Humidity: 100%
Barometer: 1010.5 hPa
Summary: Mist
Clouds: Overcast
Visibility: 2 km
Cloud details: Overcast 91 m
2022/10/01 09:15 KHAF 010915Z AUTO 15006KT 1 1/4SM BR OVC003 13/13 A2984 RMK AO2
 
KHWD - Hayward, California, USA
Distance from station: N 44km
Updated: 01/10/2022 01:54
Overcast
Overcast
 Wind from calm
Wind: Calm
Temperature: 14°C
Dew Point: 13°C
Humidity: 94%
Barometer: 1009.8 hPa
Clouds: Overcast
Visibility: 16 km
Cloud details: Overcast 213 m
2022/10/01 08:54 KHWD 010854Z 00000KT 10SM OVC007 14/13 A2982 RMK AO2 SLP106 T01440128 53003
KLVK - Livermore, California, USA
Distance from station: NNE 51km
Updated: 01/10/2022 01:53
Clear
Clear
 Wind from WNW
Wind: WNW 9 km/h
Temperature: 17°C
Dew Point: 11°C
Humidity: 68%
Barometer: 1009.1 hPa
Clouds: Clear
Visibility: 16 km
2022/10/01 08:53 KLVK 010853Z AUTO 30005KT 10SM CLR 17/11 A2980 RMK AO2 SLP087 T01720106 53004